sensor_id;sensor_type;location;lat;lon;timestamp;temperature;humidity
45435;DHT22;31183;47.404;8.500;2024-03-08T00:02:18;4.90;99.90
45435;DHT22;31183;47.404;8.500;2024-03-08T00:04:45;4.90;99.90
45435;DHT22;31183;47.404;8.500;2024-03-08T00:07:12;4.90;99.90
45435;DHT22;31183;47.404;8.500;2024-03-08T00:09:39;4.90;99.90
45435;DHT22;31183;47.404;8.500;2024-03-08T00:12:06;4.90;99.90
45435;DHT22;31183;47.404;8.500;2024-03-08T00:14:33;4.90;99.90
45435;DHT22;31183;47.404;8.500;2024-03-08T00:16:59;4.90;99.90
45435;DHT22;31183;47.404;8.500;2024-03-08T00:19:26;4.90;99.90
45435;DHT22;31183;47.404;8.500;2024-03-08T00:21:53;4.90;99.90
45435;DHT22;31183;47.404;8.500;2024-03-08T00:24:20;4.90;99.90
45435;DHT22;31183;47.404;8.500;2024-03-08T00:26:50;4.90;99.90
45435;DHT22;31183;47.404;8.500;2024-03-08T00:29:17;4.80;99.90
45435;DHT22;31183;47.404;8.500;2024-03-08T00:31:44;4.80;99.90
45435;DHT22;31183;47.404;8.500;2024-03-08T00:34:10;4.80;99.90
45435;DHT22;31183;47.404;8.500;2024-03-08T00:36:38;4.70;99.90
45435;DHT22;31183;47.404;8.500;2024-03-08T00:39:05;4.60;99.90
45435;DHT22;31183;47.404;8.500;2024-03-08T00:41:35;4.70;99.90
45435;DHT22;31183;47.404;8.500;2024-03-08T00:44:01;4.60;99.90
45435;DHT22;31183;47.404;8.500;2024-03-08T00:46:30;4.60;99.90
45435;DHT22;31183;47.404;8.500;2024-03-08T00:48:58;4.60;99.90
45435;DHT22;31183;47.404;8.500;2024-03-08T00:51:25;4.60;99.90
45435;DHT22;31183;47.404;8.500;2024-03-08T00:53:52;4.60;99.90
45435;DHT22;31183;47.404;8.500;2024-03-08T00:56:18;4.50;99.90
45435;DHT22;31183;47.404;8.500;2024-03-08T00:58:45;4.60;99.90
45435;DHT22;31183;47.404;8.500;2024-03-08T01:01:13;4.50;99.90
45435;DHT22;31183;47.404;8.500;2024-03-08T01:03:45;4.50;99.90
45435;DHT22;31183;47.404;8.500;2024-03-08T01:06:12;4.50;99.90
45435;DHT22;31183;47.404;8.500;2024-03-08T01:08:38;4.50;99.90
45435;DHT22;31183;47.404;8.500;2024-03-08T01:11:08;4.50;99.90
45435;DHT22;31183;47.404;8.500;2024-03-08T01:13:35;4.50;99.90
45435;DHT22;31183;47.404;8.500;2024-03-08T01:16:02;4.50;99.90
45435;DHT22;31183;47.404;8.500;2024-03-08T01:18:29;4.50;99.90
45435;DHT22;31183;47.404;8.500;2024-03-08T01:20:56;4.50;99.90
45435;DHT22;31183;47.404;8.500;2024-03-08T01:23:23;4.50;99.90
45435;DHT22;31183;47.404;8.500;2024-03-08T01:25:50;4.50;99.90
45435;DHT22;31183;47.404;8.500;2024-03-08T01:28:24;4.50;99.90
45435;DHT22;31183;47.404;8.500;2024-03-08T01:30:51;4.40;99.90
45435;DHT22;31183;47.404;8.500;2024-03-08T01:33:22;4.40;99.90
45435;DHT22;31183;47.404;8.500;2024-03-08T01:35:49;4.30;99.90
45435;DHT22;31183;47.404;8.500;2024-03-08T01:38:16;4.30;99.90
45435;DHT22;31183;47.404;8.500;2024-03-08T01:40:43;4.30;99.90
45435;DHT22;31183;47.404;8.500;2024-03-08T01:43:25;4.40;99.90
45435;DHT22;31183;47.404;8.500;2024-03-08T01:45:53;4.30;99.90
45435;DHT22;31183;47.404;8.500;2024-03-08T01:48:21;4.40;99.90
45435;DHT22;31183;47.404;8.500;2024-03-08T01:50:51;4.40;99.90
45435;DHT22;31183;47.404;8.500;2024-03-08T01:53:19;4.40;99.90
45435;DHT22;31183;47.404;8.500;2024-03-08T01:55:47;4.40;99.90
45435;DHT22;31183;47.404;8.500;2024-03-08T01:58:15;4.40;99.90
45435;DHT22;31183;47.404;8.500;2024-03-08T02:00:44;4.40;99.90
45435;DHT22;31183;47.404;8.500;2024-03-08T02:03:11;4.50;99.90
45435;DHT22;31183;47.404;8.500;2024-03-08T02:05:40;4.40;99.90
45435;DHT22;31183;47.404;8.500;2024-03-08T02:08:08;4.50;99.90
45435;DHT22;31183;47.404;8.500;2024-03-08T02:10:39;4.50;99.90
45435;DHT22;31183;47.404;8.500;2024-03-08T02:13:06;4.50;99.90
45435;DHT22;31183;47.404;8.500;2024-03-08T02:15:55;4.50;99.90
45435;DHT22;31183;47.404;8.500;2024-03-08T02:18:23;4.40;99.90
45435;DHT22;31183;47.404;8.500;2024-03-08T02:20:57;4.50;99.90
45435;DHT22;31183;47.404;8.500;2024-03-08T02:23:25;4.40;99.90
45435;DHT22;31183;47.404;8.500;2024-03-08T02:25:54;4.40;99.90
45435;DHT22;31183;47.404;8.500;2024-03-08T02:28:21;4.40;99.90
45435;DHT22;31183;47.404;8.500;2024-03-08T02:30:52;4.40;99.90
45435;DHT22;31183;47.404;8.500;2024-03-08T02:33:23;4.40;99.90
45435;DHT22;31183;47.404;8.500;2024-03-08T02:35:50;4.40;99.90
45435;DHT22;31183;47.404;8.500;2024-03-08T02:38:19;4.40;99.90
45435;DHT22;31183;47.404;8.500;2024-03-08T02:40:47;4.40;99.90
45435;DHT22;31183;47.404;8.500;2024-03-08T02:43:14;4.40;99.90
45435;DHT22;31183;47.404;8.500;2024-03-08T02:45:42;4.40;99.90
45435;DHT22;31183;47.404;8.500;2024-03-08T02:48:10;4.50;99.90
45435;DHT22;31183;47.404;8.500;2024-03-08T02:50:38;4.50;99.90
45435;DHT22;31183;47.404;8.500;2024-03-08T02:53:06;4.40;99.90
45435;DHT22;31183;47.404;8.500;2024-03-08T02:55:34;4.40;99.90
45435;DHT22;31183;47.404;8.500;2024-03-08T02:58:02;4.40;99.90
45435;DHT22;31183;47.404;8.500;2024-03-08T03:00:30;4.40;99.90
45435;DHT22;31183;47.404;8.500;2024-03-08T03:03:00;4.40;99.90
45435;DHT22;31183;47.404;8.500;2024-03-08T03:05:29;4.50;99.90
45435;DHT22;31183;47.404;8.500;2024-03-08T03:07:56;4.50;99.90
45435;DHT22;31183;47.404;8.500;2024-03-08T03:10:24;4.50;99.90
45435;DHT22;31183;47.404;8.500;2024-03-08T03:12:51;4.50;99.90
45435;DHT22;31183;47.404;8.500;2024-03-08T03:15:19;4.50;99.90
45435;DHT22;31183;47.404;8.500;2024-03-08T03:17:47;4.60;99.90
45435;DHT22;31183;47.404;8.500;2024-03-08T03:20:14;4.60;99.90
45435;DHT22;31183;47.404;8.500;2024-03-08T03:22:49;4.60;99.90
45435;DHT22;31183;47.404;8.500;2024-03-08T03:25:19;4.60;99.90
45435;DHT22;31183;47.404;8.500;2024-03-08T03:27:55;4.70;99.90
45435;DHT22;31183;47.404;8.500;2024-03-08T03:30:25;4.60;99.90
45435;DHT22;31183;47.404;8.500;2024-03-08T03:32:53;4.60;99.90
45435;DHT22;31183;47.404;8.500;2024-03-08T03:35:21;4.50;99.90
45435;DHT22;31183;47.404;8.500;2024-03-08T03:37:48;4.50;99.90
45435;DHT22;31183;47.404;8.500;2024-03-08T03:40:29;4.50;99.90
45435;DHT22;31183;47.404;8.500;2024-03-08T03:42:56;4.60;99.90
45435;DHT22;31183;47.404;8.500;2024-03-08T03:45:23;4.60;99.90
45435;DHT22;31183;47.404;8.500;2024-03-08T03:47:50;4.60;99.90
45435;DHT22;31183;47.404;8.500;2024-03-08T03:50:17;4.60;99.90
45435;DHT22;31183;47.404;8.500;2024-03-08T03:52:46;4.70;99.90
45435;DHT22;31183;47.404;8.500;2024-03-08T03:55:13;4.70;99.90
45435;DHT22;31183;47.404;8.500;2024-03-08T03:57:41;4.70;99.90
45435;DHT22;31183;47.404;8.500;2024-03-08T04:00:08;4.70;99.90
45435;DHT22;31183;47.404;8.500;2024-03-08T04:02:38;4.70;99.90
45435;DHT22;31183;47.404;8.500;2024-03-08T04:05:06;4.70;99.90
45435;DHT22;31183;47.404;8.500;2024-03-08T04:07:34;4.70;99.90
45435;DHT22;31183;47.404;8.500;2024-03-08T04:10:05;4.80;99.90
45435;DHT22;31183;47.404;8.500;2024-03-08T04:12:35;4.70;99.90
45435;DHT22;31183;47.404;8.500;2024-03-08T04:15:02;4.70;99.90
45435;DHT22;31183;47.404;8.500;2024-03-08T04:17:29;4.60;99.90
45435;DHT22;31183;47.404;8.500;2024-03-08T04:19:56;4.60;99.90
45435;DHT22;31183;47.404;8.500;2024-03-08T04:22:23;4.60;99.90
45435;DHT22;31183;47.404;8.500;2024-03-08T04:24:50;4.60;99.90
45435;DHT22;31183;47.404;8.500;2024-03-08T04:27:17;4.60;99.90
45435;DHT22;31183;47.404;8.500;2024-03-08T04:29:44;4.60;99.90
45435;DHT22;31183;47.404;8.500;2024-03-08T04:32:10;4.60;99.90
45435;DHT22;31183;47.404;8.500;2024-03-08T04:34:37;4.60;99.90
45435;DHT22;31183;47.404;8.500;2024-03-08T04:37:04;4.50;99.90
45435;DHT22;31183;47.404;8.500;2024-03-08T04:39:31;4.50;99.90
45435;DHT22;31183;47.404;8.500;2024-03-08T04:42:01;4.50;99.90
45435;DHT22;31183;47.404;8.500;2024-03-08T04:44:32;4.50;99.90
45435;DHT22;31183;47.404;8.500;2024-03-08T04:47:00;4.50;99.90
45435;DHT22;31183;47.404;8.500;2024-03-08T04:49:27;4.50;99.90
45435;DHT22;31183;47.404;8.500;2024-03-08T04:51:54;4.50;99.90
45435;DHT22;31183;47.404;8.500;2024-03-08T04:54:21;4.50;99.90
45435;DHT22;31183;47.404;8.500;2024-03-08T04:56:48;4.60;99.90
45435;DHT22;31183;47.404;8.500;2024-03-08T04:59:15;4.60;99.90
45435;DHT22;31183;47.404;8.500;2024-03-08T05:01:41;4.60;99.90
45435;DHT22;31183;47.404;8.500;2024-03-08T05:04:08;4.60;99.90
45435;DHT22;31183;47.404;8.500;2024-03-08T05:06:36;4.60;99.90
45435;DHT22;31183;47.404;8.500;2024-03-08T05:09:03;4.50;99.90
45435;DHT22;31183;47.404;8.500;2024-03-08T05:11:41;4.50;99.90
45435;DHT22;31183;47.404;8.500;2024-03-08T05:14:07;4.50;99.90
45435;DHT22;31183;47.404;8.500;2024-03-08T05:16:34;4.50;99.90
45435;DHT22;31183;47.404;8.500;2024-03-08T05:19:02;4.60;99.90
45435;DHT22;31183;47.404;8.500;2024-03-08T05:21:29;4.60;99.90
45435;DHT22;31183;47.404;8.500;2024-03-08T05:23:56;4.60;99.90
45435;DHT22;31183;47.404;8.500;2024-03-08T05:26:22;4.60;99.90
45435;DHT22;31183;47.404;8.500;2024-03-08T05:28:49;4.60;99.90
45435;DHT22;31183;47.404;8.500;2024-03-08T05:31:22;4.70;99.90
45435;DHT22;31183;47.404;8.500;2024-03-08T05:33:49;4.70;99.90
45435;DHT22;31183;47.404;8.500;2024-03-08T05:36:16;4.60;99.90
45435;DHT22;31183;47.404;8.500;2024-03-08T05:38:43;4.70;99.90
45435;DHT22;31183;47.404;8.500;2024-03-08T05:41:10;4.70;99.90
45435;DHT22;31183;47.404;8.500;2024-03-08T05:43:44;4.70;99.90
45435;DHT22;31183;47.404;8.500;2024-03-08T05:46:10;4.70;99.90
45435;DHT22;31183;47.404;8.500;2024-03-08T05:48:38;4.70;99.90
45435;DHT22;31183;47.404;8.500;2024-03-08T05:51:05;4.70;99.90
45435;DHT22;31183;47.404;8.500;2024-03-08T05:53:32;4.70;99.90
45435;DHT22;31183;47.404;8.500;2024-03-08T05:55:59;4.70;99.90
45435;DHT22;31183;47.404;8.500;2024-03-08T05:58:25;4.70;99.90
45435;DHT22;31183;47.404;8.500;2024-03-08T06:00:52;4.70;99.90
45435;DHT22;31183;47.404;8.500;2024-03-08T06:03:19;4.70;99.90
45435;DHT22;31183;47.404;8.500;2024-03-08T06:05:50;4.70;99.90
45435;DHT22;31183;47.404;8.500;2024-03-08T06:08:17;4.60;99.90
45435;DHT22;31183;47.404;8.500;2024-03-08T06:10:45;4.60;99.90
45435;DHT22;31183;47.404;8.500;2024-03-08T06:13:12;4.60;99.90
45435;DHT22;31183;47.404;8.500;2024-03-08T06:15:39;4.60;99.90
45435;DHT22;31183;47.404;8.500;2024-03-08T06:18:05;4.60;99.90
45435;DHT22;31183;47.404;8.500;2024-03-08T06:20:33;4.50;99.90
45435;DHT22;31183;47.404;8.500;2024-03-08T06:23:00;4.50;99.90
45435;DHT22;31183;47.404;8.500;2024-03-08T06:25:28;4.50;99.90
45435;DHT22;31183;47.404;8.500;2024-03-08T06:27:54;4.50;99.90
45435;DHT22;31183;47.404;8.500;2024-03-08T06:30:21;4.40;99.90
45435;DHT22;31183;47.404;8.500;2024-03-08T06:32:48;4.50;99.90
45435;DHT22;31183;47.404;8.500;2024-03-08T06:35:15;4.40;99.90
45435;DHT22;31183;47.404;8.500;2024-03-08T06:37:43;4.40;99.90
45435;DHT22;31183;47.404;8.500;2024-03-08T06:40:11;4.40;99.90
45435;DHT22;31183;47.404;8.500;2024-03-08T06:42:41;4.30;99.90
45435;DHT22;31183;47.404;8.500;2024-03-08T06:45:08;4.30;99.90
45435;DHT22;31183;47.404;8.500;2024-03-08T06:47:36;4.30;99.90
45435;DHT22;31183;47.404;8.500;2024-03-08T06:50:04;4.30;99.90
45435;DHT22;31183;47.404;8.500;2024-03-08T06:52:31;4.30;99.90
45435;DHT22;31183;47.404;8.500;2024-03-08T06:54:58;4.30;99.90
45435;DHT22;31183;47.404;8.500;2024-03-08T06:57:25;5.20;99.90
45435;DHT22;31183;47.404;8.500;2024-03-08T06:59:52;4.20;99.90
45435;DHT22;31183;47.404;8.500;2024-03-08T07:02:19;4.20;99.90
45435;DHT22;31183;47.404;8.500;2024-03-08T07:04:45;4.20;99.90
45435;DHT22;31183;47.404;8.500;2024-03-08T07:07:12;4.20;99.90
45435;DHT22;31183;47.404;8.500;2024-03-08T07:09:39;4.30;99.90
45435;DHT22;31183;47.404;8.500;2024-03-08T07:12:06;4.30;99.90
45435;DHT22;31183;47.404;8.500;2024-03-08T07:14:33;4.10;99.90
45435;DHT22;31183;47.404;8.500;2024-03-08T07:17:01;4.10;99.90
45435;DHT22;31183;47.404;8.500;2024-03-08T07:19:30;4.00;99.90
45435;DHT22;31183;47.404;8.500;2024-03-08T07:21:57;4.10;99.90
45435;DHT22;31183;47.404;8.500;2024-03-08T07:24:23;4.10;99.90
45435;DHT22;31183;47.404;8.500;2024-03-08T07:27:09;4.10;99.90
45435;DHT22;31183;47.404;8.500;2024-03-08T07:29:35;3.90;99.90
45435;DHT22;31183;47.404;8.500;2024-03-08T07:32:02;4.00;99.90
45435;DHT22;31183;47.404;8.500;2024-03-08T07:34:29;4.00;99.90
45435;DHT22;31183;47.404;8.500;2024-03-08T07:37:00;4.10;99.90
45435;DHT22;31183;47.404;8.500;2024-03-08T07:39:26;4.10;99.90
45435;DHT22;31183;47.404;8.500;2024-03-08T07:41:53;4.10;99.90
45435;DHT22;31183;47.404;8.500;2024-03-08T07:44:20;4.20;99.90
45435;DHT22;31183;47.404;8.500;2024-03-08T07:46:46;4.10;99.90
45435;DHT22;31183;47.404;8.500;2024-03-08T07:49:13;4.10;99.90
45435;DHT22;31183;47.404;8.500;2024-03-08T07:51:41;4.10;99.90
45435;DHT22;31183;47.404;8.500;2024-03-08T07:54:08;4.10;99.90
45435;DHT22;31183;47.404;8.500;2024-03-08T07:56:36;4.10;99.90
45435;DHT22;31183;47.404;8.500;2024-03-08T07:59:04;4.00;99.90
45435;DHT22;31183;47.404;8.500;2024-03-08T08:01:31;4.00;99.90
45435;DHT22;31183;47.404;8.500;2024-03-08T08:03:58;4.00;99.90
45435;DHT22;31183;47.404;8.500;2024-03-08T08:06:24;4.10;99.90
45435;DHT22;31183;47.404;8.500;2024-03-08T08:08:51;4.30;99.90
45435;DHT22;31183;47.404;8.500;2024-03-08T08:11:18;4.30;99.90
45435;DHT22;31183;47.404;8.500;2024-03-08T08:13:46;4.50;99.90
45435;DHT22;31183;47.404;8.500;2024-03-08T08:16:13;4.50;99.90
45435;DHT22;31183;47.404;8.500;2024-03-08T08:18:40;4.70;99.90
45435;DHT22;31183;47.404;8.500;2024-03-08T08:21:07;4.70;99.90
45435;DHT22;31183;47.404;8.500;2024-03-08T08:23:34;4.80;99.90
45435;DHT22;31183;47.404;8.500;2024-03-08T08:26:00;4.80;99.90
45435;DHT22;31183;47.404;8.500;2024-03-08T08:28:29;4.70;99.90
45435;DHT22;31183;47.404;8.500;2024-03-08T08:30:57;4.60;99.90
45435;DHT22;31183;47.404;8.500;2024-03-08T08:33:23;4.50;99.90
45435;DHT22;31183;47.404;8.500;2024-03-08T08:35:51;4.60;99.90
45435;DHT22;31183;47.404;8.500;2024-03-08T08:38:20;4.60;99.90
45435;DHT22;31183;47.404;8.500;2024-03-08T08:40:47;4.50;99.90
45435;DHT22;31183;47.404;8.500;2024-03-08T08:43:14;4.50;99.90
45435;DHT22;31183;47.404;8.500;2024-03-08T08:45:40;4.60;99.90
45435;DHT22;31183;47.404;8.500;2024-03-08T08:48:09;4.70;99.90
45435;DHT22;31183;47.404;8.500;2024-03-08T08:50:37;4.80;99.90
45435;DHT22;31183;47.404;8.500;2024-03-08T08:53:04;4.80;99.90
45435;DHT22;31183;47.404;8.500;2024-03-08T08:55:33;4.90;99.90
45435;DHT22;31183;47.404;8.500;2024-03-08T08:58:02;5.10;99.90
45435;DHT22;31183;47.404;8.500;2024-03-08T09:00:29;5.20;99.90
45435;DHT22;31183;47.404;8.500;2024-03-08T09:02:57;5.30;99.90
45435;DHT22;31183;47.404;8.500;2024-03-08T09:05:25;5.30;99.90
45435;DHT22;31183;47.404;8.500;2024-03-08T09:07:52;5.10;99.90
45435;DHT22;31183;47.404;8.500;2024-03-08T09:10:19;5.20;99.90
45435;DHT22;31183;47.404;8.500;2024-03-08T09:12:46;5.50;99.90
45435;DHT22;31183;47.404;8.500;2024-03-08T09:15:13;6.20;99.90
45435;DHT22;31183;47.404;8.500;2024-03-08T09:17:40;7.00;99.90
45435;DHT22;31183;47.404;8.500;2024-03-08T09:20:09;7.80;99.90
45435;DHT22;31183;47.404;8.500;2024-03-08T09:22:37;8.60;99.90
45435;DHT22;31183;47.404;8.500;2024-03-08T09:25:04;8.30;99.90
45435;DHT22;31183;47.404;8.500;2024-03-08T09:27:32;8.80;99.90
45435;DHT22;31183;47.404;8.500;2024-03-08T09:30:00;8.70;99.90
45435;DHT22;31183;47.404;8.500;2024-03-08T09:32:27;8.40;99.90
45435;DHT22;31183;47.404;8.500;2024-03-08T09:34:54;8.00;99.90
45435;DHT22;31183;47.404;8.500;2024-03-08T09:37:22;7.50;99.90
45435;DHT22;31183;47.404;8.500;2024-03-08T09:39:49;7.50;99.90
45435;DHT22;31183;47.404;8.500;2024-03-08T09:42:16;8.50;99.90
45435;DHT22;31183;47.404;8.500;2024-03-08T09:44:46;10.10;99.90
45435;DHT22;31183;47.404;8.500;2024-03-08T09:47:14;11.00;99.90
45435;DHT22;31183;47.404;8.500;2024-03-08T09:49:41;10.30;99.50
45435;DHT22;31183;47.404;8.500;2024-03-08T09:52:08;9.70;99.70
45435;DHT22;31183;47.404;8.500;2024-03-08T09:54:35;9.60;99.90
45435;DHT22;31183;47.404;8.500;2024-03-08T09:57:04;10.40;99.70
45435;DHT22;31183;47.404;8.500;2024-03-08T09:59:31;10.50;98.70
45435;DHT22;31183;47.404;8.500;2024-03-08T10:02:03;10.50;98.80
45435;DHT22;31183;47.404;8.500;2024-03-08T10:04:32;10.60;98.80
45435;DHT22;31183;47.404;8.500;2024-03-08T10:07:00;10.70;98.70
45435;DHT22;31183;47.404;8.500;2024-03-08T10:09:28;10.80;98.30
45435;DHT22;31183;47.404;8.500;2024-03-08T10:11:57;11.40;97.80
45435;DHT22;31183;47.404;8.500;2024-03-08T10:14:25;11.50;95.00
45435;DHT22;31183;47.404;8.500;2024-03-08T10:16:53;11.50;94.70
45435;DHT22;31183;47.404;8.500;2024-03-08T10:19:20;11.60;94.20
45435;DHT22;31183;47.404;8.500;2024-03-08T10:21:50;12.30;93.40
45435;DHT22;31183;47.404;8.500;2024-03-08T10:24:20;11.60;92.70
45435;DHT22;31183;47.404;8.500;2024-03-08T10:26:55;11.90;94.60
45435;DHT22;31183;47.404;8.500;2024-03-08T10:29:24;12.80;92.40
45435;DHT22;31183;47.404;8.500;2024-03-08T10:31:51;13.50;88.80
45435;DHT22;31183;47.404;8.500;2024-03-08T10:34:18;13.80;85.00
45435;DHT22;31183;47.404;8.500;2024-03-08T10:36:50;13.70;82.60
45435;DHT22;31183;47.404;8.500;2024-03-08T10:39:23;14.00;83.20
45435;DHT22;31183;47.404;8.500;2024-03-08T10:41:57;14.60;81.20
45435;DHT22;31183;47.404;8.500;2024-03-08T10:47:25;14.10;78.70
45435;DHT22;31183;47.404;8.500;2024-03-08T10:50:11;14.10;80.80
45435;DHT22;31183;47.404;8.500;2024-03-08T10:52:43;14.60;81.60
45435;DHT22;31183;47.404;8.500;2024-03-08T10:55:12;14.40;80.50
45435;DHT22;31183;47.404;8.500;2024-03-08T10:57:40;14.30;77.80
45435;DHT22;31183;47.404;8.500;2024-03-08T11:00:08;14.10;82.10
45435;DHT22;31183;47.404;8.500;2024-03-08T11:02:38;12.60;82.70
45435;DHT22;31183;47.404;8.500;2024-03-08T11:05:10;11.70;86.30
45435;DHT22;31183;47.404;8.500;2024-03-08T11:07:42;10.90;90.20
45435;DHT22;31183;47.404;8.500;2024-03-08T11:10:19;10.40;90.70
45435;DHT22;31183;47.404;8.500;2024-03-08T11:12:46;10.50;92.70
45435;DHT22;31183;47.404;8.500;2024-03-08T11:15:15;9.80;93.20
45435;DHT22;31183;47.404;8.500;2024-03-08T11:17:49;9.70;93.60
45435;DHT22;31183;47.404;8.500;2024-03-08T11:20:20;9.40;93.40
45435;DHT22;31183;47.404;8.500;2024-03-08T11:22:54;9.20;94.30
45435;DHT22;31183;47.404;8.500;2024-03-08T11:28:17;9.10;96.00
45435;DHT22;31183;47.404;8.500;2024-03-08T11:33:31;9.00;97.20
45435;DHT22;31183;47.404;8.500;2024-03-08T11:38:41;9.00;97.20
45435;DHT22;31183;47.404;8.500;2024-03-08T11:41:08;8.90;98.70
45435;DHT22;31183;47.404;8.500;2024-03-08T11:43:35;9.00;99.40
45435;DHT22;31183;47.404;8.500;2024-03-08T11:46:09;9.10;99.50
45435;DHT22;31183;47.404;8.500;2024-03-08T11:48:35;9.20;99.10
45435;DHT22;31183;47.404;8.500;2024-03-08T11:51:02;9.30;99.60
45435;DHT22;31183;47.404;8.500;2024-03-08T11:53:30;9.30;99.90
45435;DHT22;31183;47.404;8.500;2024-03-08T11:56:11;9.20;99.20
45435;DHT22;31183;47.404;8.500;2024-03-08T11:58:39;9.00;99.40
45435;DHT22;31183;47.404;8.500;2024-03-08T12:01:08;8.70;98.80
45435;DHT22;31183;47.404;8.500;2024-03-08T12:03:39;8.60;98.70
45435;DHT22;31183;47.404;8.500;2024-03-08T12:06:09;8.40;99.80
45435;DHT22;31183;47.404;8.500;2024-03-08T12:08:36;8.30;99.90
45435;DHT22;31183;47.404;8.500;2024-03-08T12:11:07;8.50;99.90
45435;DHT22;31183;47.404;8.500;2024-03-08T12:13:34;8.70;99.90
45435;DHT22;31183;47.404;8.500;2024-03-08T12:16:04;8.80;99.90
45435;DHT22;31183;47.404;8.500;2024-03-08T12:18:37;8.70;99.90
45435;DHT22;31183;47.404;8.500;2024-03-08T12:21:13;8.60;99.90
45435;DHT22;31183;47.404;8.500;2024-03-08T12:23:44;8.50;99.90
45435;DHT22;31183;47.404;8.500;2024-03-08T12:26:13;8.40;99.90
45435;DHT22;31183;47.404;8.500;2024-03-08T12:28:41;8.30;99.90
45435;DHT22;31183;47.404;8.500;2024-03-08T12:31:12;8.30;99.90
45435;DHT22;31183;47.404;8.500;2024-03-08T12:33:49;8.30;99.90
45435;DHT22;31183;47.404;8.500;2024-03-08T12:36:19;8.20;99.90
45435;DHT22;31183;47.404;8.500;2024-03-08T12:38:49;8.30;99.90
45435;DHT22;31183;47.404;8.500;2024-03-08T12:41:19;8.30;99.90
45435;DHT22;31183;47.404;8.500;2024-03-08T12:43:47;8.20;99.90
45435;DHT22;31183;47.404;8.500;2024-03-08T12:46:16;8.20;99.90
45435;DHT22;31183;47.404;8.500;2024-03-08T12:48:43;8.10;99.90
45435;DHT22;31183;47.404;8.500;2024-03-08T12:51:14;8.20;99.90
45435;DHT22;31183;47.404;8.500;2024-03-08T12:53:42;8.00;99.90
45435;DHT22;31183;47.404;8.500;2024-03-08T12:56:29;7.90;99.90
45435;DHT22;31183;47.404;8.500;2024-03-08T12:58:56;7.80;99.90
45435;DHT22;31183;47.404;8.500;2024-03-08T13:01:23;7.70;99.90
45435;DHT22;31183;47.404;8.500;2024-03-08T13:03:50;7.80;99.90
45435;DHT22;31183;47.404;8.500;2024-03-08T13:06:16;7.80;99.90
45435;DHT22;31183;47.404;8.500;2024-03-08T13:08:43;7.80;99.90
45435;DHT22;31183;47.404;8.500;2024-03-08T13:11:10;7.60;99.90
45435;DHT22;31183;47.404;8.500;2024-03-08T13:13:43;7.70;99.90
45435;DHT22;31183;47.404;8.500;2024-03-08T13:16:11;7.70;99.90
45435;DHT22;31183;47.404;8.500;2024-03-08T13:18:41;7.70;99.90
45435;DHT22;31183;47.404;8.500;2024-03-08T13:21:11;7.60;99.90
45435;DHT22;31183;47.404;8.500;2024-03-08T13:23:41;7.70;99.90
45435;DHT22;31183;47.404;8.500;2024-03-08T13:26:13;7.60;99.90
45435;DHT22;31183;47.404;8.500;2024-03-08T13:28:47;7.50;99.90
45435;DHT22;31183;47.404;8.500;2024-03-08T13:31:15;7.60;99.90
45435;DHT22;31183;47.404;8.500;2024-03-08T13:33:42;7.60;99.90
45435;DHT22;31183;47.404;8.500;2024-03-08T13:36:09;7.60;99.90
45435;DHT22;31183;47.404;8.500;2024-03-08T13:38:46;7.70;99.90
45435;DHT22;31183;47.404;8.500;2024-03-08T13:41:15;7.60;99.90
45435;DHT22;31183;47.404;8.500;2024-03-08T13:43:46;7.60;99.90
45435;DHT22;31183;47.404;8.500;2024-03-08T13:46:17;7.70;99.90
45435;DHT22;31183;47.404;8.500;2024-03-08T13:48:43;7.70;99.90
45435;DHT22;31183;47.404;8.500;2024-03-08T13:51:10;7.70;99.90
45435;DHT22;31183;47.404;8.500;2024-03-08T13:53:39;7.60;99.90
45435;DHT22;31183;47.404;8.500;2024-03-08T13:56:07;7.50;99.90
45435;DHT22;31183;47.404;8.500;2024-03-08T13:58:37;7.40;99.90
45435;DHT22;31183;47.404;8.500;2024-03-08T14:01:04;7.20;99.90
45435;DHT22;31183;47.404;8.500;2024-03-08T14:03:38;7.20;99.90
45435;DHT22;31183;47.404;8.500;2024-03-08T14:06:09;7.40;99.90
45435;DHT22;31183;47.404;8.500;2024-03-08T14:08:36;7.50;99.90
45435;DHT22;31183;47.404;8.500;2024-03-08T14:11:06;7.50;99.90
45435;DHT22;31183;47.404;8.500;2024-03-08T14:13:43;7.50;99.90
45435;DHT22;31183;47.404;8.500;2024-03-08T14:16:12;7.40;99.90
45435;DHT22;31183;47.404;8.500;2024-03-08T14:18:39;7.50;99.90
45435;DHT22;31183;47.404;8.500;2024-03-08T14:21:06;7.30;99.90
45435;DHT22;31183;47.404;8.500;2024-03-08T14:23:35;7.40;99.90
45435;DHT22;31183;47.404;8.500;2024-03-08T14:26:05;7.40;99.90
45435;DHT22;31183;47.404;8.500;2024-03-08T14:28:34;7.30;99.90
45435;DHT22;31183;47.404;8.500;2024-03-08T14:31:01;7.30;99.90
45435;DHT22;31183;47.404;8.500;2024-03-08T14:33:33;7.30;99.90
45435;DHT22;31183;47.404;8.500;2024-03-08T14:35:59;7.30;99.90
45435;DHT22;31183;47.404;8.500;2024-03-08T14:38:27;7.30;99.90
45435;DHT22;31183;47.404;8.500;2024-03-08T14:40:54;7.40;99.90
45435;DHT22;31183;47.404;8.500;2024-03-08T14:43:22;7.30;99.90
45435;DHT22;31183;47.404;8.500;2024-03-08T14:45:49;7.20;99.90
45435;DHT22;31183;47.404;8.500;2024-03-08T14:48:17;7.10;99.90
45435;DHT22;31183;47.404;8.500;2024-03-08T14:50:44;7.10;99.90
45435;DHT22;31183;47.404;8.500;2024-03-08T14:53:10;7.00;99.90
45435;DHT22;31183;47.404;8.500;2024-03-08T14:55:39;7.20;99.90
45435;DHT22;31183;47.404;8.500;2024-03-08T14:58:05;7.30;99.90
45435;DHT22;31183;47.404;8.500;2024-03-08T15:00:32;7.40;99.90
45435;DHT22;31183;47.404;8.500;2024-03-08T15:03:02;7.50;99.90
45435;DHT22;31183;47.404;8.500;2024-03-08T15:05:31;7.60;99.90
45435;DHT22;31183;47.404;8.500;2024-03-08T15:07:59;7.60;99.90
45435;DHT22;31183;47.404;8.500;2024-03-08T15:10:36;7.60;99.90
45435;DHT22;31183;47.404;8.500;2024-03-08T15:13:03;7.50;99.90
45435;DHT22;31183;47.404;8.500;2024-03-08T15:15:41;7.60;99.90
45435;DHT22;31183;47.404;8.500;2024-03-08T15:18:09;7.70;99.90
45435;DHT22;31183;47.404;8.500;2024-03-08T15:20:38;7.80;99.90
45435;DHT22;31183;47.404;8.500;2024-03-08T15:23:05;7.80;99.90
45435;DHT22;31183;47.404;8.500;2024-03-08T15:25:35;7.80;99.90
45435;DHT22;31183;47.404;8.500;2024-03-08T15:28:03;7.80;99.90
45435;DHT22;31183;47.404;8.500;2024-03-08T15:30:37;7.90;99.90
45435;DHT22;31183;47.404;8.500;2024-03-08T15:33:06;7.90;99.90
45435;DHT22;31183;47.404;8.500;2024-03-08T15:35:37;8.00;99.90
45435;DHT22;31183;47.404;8.500;2024-03-08T15:38:04;7.90;99.90
45435;DHT22;31183;47.404;8.500;2024-03-08T15:40:31;7.90;99.90
45435;DHT22;31183;47.404;8.500;2024-03-08T15:43:01;8.00;99.90
45435;DHT22;31183;47.404;8.500;2024-03-08T15:45:28;8.00;99.90
45435;DHT22;31183;47.404;8.500;2024-03-08T15:47:56;7.60;99.90
45435;DHT22;31183;47.404;8.500;2024-03-08T15:50:23;7.70;99.90
45435;DHT22;31183;47.404;8.500;2024-03-08T15:52:50;7.70;99.90
45435;DHT22;31183;47.404;8.500;2024-03-08T15:55:20;7.70;99.90
45435;DHT22;31183;47.404;8.500;2024-03-08T15:57:49;7.80;99.90
45435;DHT22;31183;47.404;8.500;2024-03-08T16:00:18;7.70;99.90
45435;DHT22;31183;47.404;8.500;2024-03-08T16:03:01;7.80;99.90
45435;DHT22;31183;47.404;8.500;2024-03-08T16:05:38;7.80;99.90